KASE/ASE METAR and TAF weather

Enter ICAO airport designator
Station Type Date Time Source
KASE METAR 2018/04/21 13:17 UTC NOAA

KASE 211317Z 34003KT 3SM BR SCT001 OVC008 M01/M01 A3013 RMK AO2 CIG 005V012 T10061011


Station Type Date Time Source
KASE Decoded METAR 2018/04/21 13:17 UTC NOAA

ASPEN-PITKIN COUNTY AIRPORT, CO, United States (KASE) 39-14N 106-52W 2354M
Apr 21, 2018 - 09:17 AM EDT / 2018.04.21 1317 UTC
Wind: from the NNW (340 degrees) at 3 MPH (3 KT):0
Visibility: 3 mile(s):0
Sky conditions: overcast
Weather: mist
Temperature: 30.9 F (-0.6 C)
Dew Point: 30.0 F (-1.1 C)
Relative Humidity: 96%
Pressure (altimeter): 30.13 in. Hg (1020 hPa)
ob: KASE 211317Z 34003KT 3SM BR SCT001 OVC008 M01/M01 A3013 RMK AO2 CIG 005V012 T10061011
cycle: 13

Station Type Date Time Source
KASE TAF 2018/04/21 13:21 UTC NOAA

TAF
AMD KASE 211319Z 2113/2212 00000KT P6SM VCSH SCT003 OVC008
TEMPO 2113/2115 1SM BR SCT001 OVC006
FM211500 34004KT P6SM -SN SCT009 BKN020
FM211700 01004KT P6SM VCSH BKN030 BKN050
FM212000 36006KT P6SM BKN040
FM220200 21005KT P6SM FEW050 SCT090
FM220400 19004KT P6SM SKC


Example: see airport list